首页
METAR-TAF:

METAR-TAF

机场 :

帕耶讷, 瑞士

纬度: 46-49N, 经度: 006-57E, 海拔: 490米

当前天气观测

该预报发布于30分钟前的01:20 UTC
风速3节,风向西南
温度 14°C
湿度 94%
气压 1017 hPa
能见度10公里或以上
少量云层高于11000英尺

METAR: LSMP 180120Z AUTO 22003KT 9999NDV FEW110 14/13 Q1017 RMK

时间: 03:50 (01:50 UTC)


TAF: 丢失

超过4000个机场的气象观测和天气预报(METAR&TAF报告)。

可查询的气象台以黄色和红色小点在地图上表示。

将鼠标移到小点上方,可查看气象台名称。

然后点击查看天气观测和预报。

如需切换地图:点击带黑十字的绿色按钮放大地图;点击带横线的绿色按钮缩小地图;或者点击绿色箭头查看邻近地区的地图。


METAR-TAF: